createdAt,value
2022-08-16T00:00:42.570Z,69.06
2022-08-16T00:01:41.908Z,69.15
2022-08-16T00:02:41.523Z,68.85
2022-08-16T00:03:41.613Z,69.06
2022-08-16T00:04:41.557Z,68.95
2022-08-16T00:05:47.880Z,68.85
2022-08-16T00:06:42.590Z,68.72
2022-08-16T00:07:41.516Z,69.22
2022-08-16T00:08:42.254Z,68.82
2022-08-16T00:09:41.698Z,69.22
2022-08-16T00:10:41.476Z,69.02
2022-08-16T00:11:41.454Z,69.12
2022-08-16T00:12:41.464Z,68.21
2022-08-16T00:13:42.478Z,68.21
2022-08-16T00:14:41.387Z,68.62
2022-08-16T00:15:52.224Z,68.52
2022-08-16T00:17:01.375Z,68.21
2022-08-16T00:17:56.526Z,69.02
2022-08-16T00:18:42.252Z,69.09
2022-08-16T00:19:42.234Z,69.09
2022-08-16T00:20:41.813Z,68.79
2022-08-16T00:21:41.189Z,68.88
2022-08-16T00:22:42.789Z,68.88
2022-08-16T00:23:46.420Z,68.18
2022-08-16T00:24:44.785Z,68.49
2022-08-16T00:26:33.374Z,68.49
2022-08-16T00:26:43.913Z,68.99
2022-08-16T00:27:41.217Z,68.79
2022-08-16T00:28:42.171Z,68.68
2022-08-16T00:29:41.142Z,69.82
2022-08-16T00:30:41.102Z,69.92
2022-08-16T00:31:47.140Z,69.92
2022-08-16T00:32:41.972Z,70.32
2022-08-16T00:33:41.098Z,70.93
2022-08-16T00:34:52.357Z,71.03
2022-08-16T00:35:42.030Z,71.87
2022-08-16T00:36:47.142Z,71.56
2022-08-16T00:37:57.727Z,72.37
2022-08-16T00:38:43.849Z,72.27
2022-08-16T00:39:40.979Z,72.67
2022-08-16T00:40:43.923Z,72.67
2022-08-16T00:41:41.820Z,72.20
2022-08-16T00:42:40.917Z,73.00
2022-08-16T00:43:43.697Z,73.31
2022-08-16T00:44:40.845Z,73.51
2022-08-16T00:45:57.810Z,73.61
2022-08-16T00:46:52.863Z,73.91
2022-08-16T00:47:42.700Z,73.44
2022-08-16T00:48:44.070Z,74.32
2022-08-16T00:49:44.535Z,73.61
2022-08-16T00:50:40.723Z,73.71
2022-08-16T00:51:41.327Z,73.21
2022-08-16T00:52:50.317Z,73.51
2022-08-16T00:53:41.713Z,73.41
2022-08-16T00:54:40.762Z,73.61
2022-08-16T00:55:40.643Z,73.61
2022-08-16T00:56:56.570Z,73.91
2022-08-16T00:57:59.867Z,74.01
2022-08-16T00:58:41.522Z,73.71
2022-08-16T00:59:54.760Z,73.61
2022-08-16T01:00:41.532Z,74.52
2022-08-16T01:01:40.468Z,74.52
2022-08-16T01:02:40.457Z,74.41
2022-08-16T01:03:41.900Z,74.52
2022-08-16T01:04:40.414Z,74.92
2022-08-16T01:05:41.412Z,75.12
2022-08-16T01:06:49.133Z,75.26
2022-08-16T01:07:50.459Z,74.92
2022-08-16T01:08:41.416Z,74.72
2022-08-16T01:09:42.924Z,74.41
2022-08-16T01:10:40.417Z,74.41
2022-08-16T01:11:54.091Z,73.91
2022-08-16T01:12:41.274Z,75.26
2022-08-16T01:13:40.248Z,75.05
2022-08-16T01:14:40.296Z,74.95
2022-08-16T01:15:43.068Z,77.37
2022-08-16T01:16:40.281Z,76.80
2022-08-16T01:17:40.260Z,76.87
2022-08-16T01:18:41.483Z,78.51
2022-08-16T01:19:40.862Z,77.40
2022-08-16T01:20:40.209Z,76.80
2022-08-16T01:21:41.029Z,76.16
2022-08-16T01:22:57.637Z,76.36
2022-08-16T01:23:58.615Z,75.26
2022-08-16T01:24:51.723Z,75.35
2022-08-16T01:25:41.831Z,75.76
2022-08-16T01:26:40.152Z,75.66
2022-08-16T01:27:40.031Z,75.76
2022-08-16T01:28:45.221Z,75.96
2022-08-16T01:29:57.891Z,76.20
2022-08-16T01:30:50.353Z,75.76
2022-08-16T01:31:42.729Z,76.20
2022-08-16T01:32:39.973Z,76.20
2022-08-16T01:33:39.981Z,76.90
2022-08-16T01:34:47.294Z,77.04
2022-08-16T01:35:41.505Z,76.74
2022-08-16T01:36:40.178Z,77.04
2022-08-16T01:37:39.853Z,77.04
2022-08-16T01:38:39.879Z,76.74
2022-08-16T01:39:39.949Z,76.70
2022-08-16T01:40:39.842Z,76.94
2022-08-16T01:41:42.216Z,76.84
2022-08-16T01:42:42.440Z,76.60
2022-08-16T01:43:40.008Z,76.80
2022-08-16T01:44:39.785Z,77.00
2022-08-16T01:45:41.619Z,77.04
2022-08-16T01:46:40.860Z,76.64
2022-08-16T01:47:49.408Z,76.43
2022-08-16T01:48:40.700Z,76.84
2022-08-16T01:49:43.555Z,76.94
2022-08-16T01:50:43.123Z,76.64
2022-08-16T01:51:40.612Z,77.04
2022-08-16T01:52:39.633Z,76.54
2022-08-16T01:53:41.125Z,76.14
2022-08-16T01:54:39.632Z,76.23
2022-08-16T01:55:40.831Z,77.14
2022-08-16T01:56:39.556Z,76.74
2022-08-16T01:57:39.593Z,76.74
2022-08-16T01:58:40.572Z,76.94
2022-08-16T01:59:40.551Z,77.24
2022-08-16T02:00:39.413Z,76.94
2022-08-16T02:01:39.527Z,77.28
2022-08-16T02:02:42.439Z,77.38
2022-08-16T02:03:40.044Z,77.88
2022-08-16T02:04:48.583Z,78.08
2022-08-16T02:05:40.409Z,78.28
2022-08-16T02:06:46.020Z,78.49
2022-08-16T02:07:44.137Z,78.08
2022-08-16T02:08:39.259Z,77.64
2022-08-16T02:09:39.280Z,76.94
2022-08-16T02:10:39.302Z,77.24
2022-08-16T02:11:47.952Z,76.60
2022-08-16T02:12:51.373Z,76.94
2022-08-16T02:13:41.809Z,77.24
2022-08-16T02:14:39.306Z,77.14
2022-08-16T02:15:42.332Z,77.55
2022-08-16T02:16:39.133Z,77.78
2022-08-16T02:17:39.126Z,77.98
2022-08-16T02:18:39.142Z,78.39
2022-08-16T02:19:59.139Z,78.79
2022-08-16T02:20:42.697Z,78.49
2022-08-16T02:21:40.840Z,78.39
2022-08-16T02:22:40.042Z,79.09
2022-08-16T02:23:39.022Z,79.39
2022-08-16T02:24:41.154Z,79.29
2022-08-16T02:25:50.587Z,79.49
2022-08-16T02:26:40.082Z,78.19
2022-08-16T02:27:38.955Z,79.39
2022-08-16T02:28:38.974Z,78.28
2022-08-16T02:29:41.424Z,78.28
2022-08-16T02:30:44.315Z,78.28
2022-08-16T02:32:04.162Z,78.32
2022-08-16T02:32:49.932Z,79.13
2022-08-16T02:33:44.194Z,79.43
2022-08-16T02:34:41.102Z,79.53
2022-08-16T02:35:54.001Z,79.63
2022-08-16T02:36:48.087Z,79.53
2022-08-16T02:37:52.224Z,79.73
2022-08-16T02:38:39.858Z,79.87
2022-08-16T02:39:38.856Z,80.04
2022-08-16T02:40:38.723Z,80.07
2022-08-16T02:41:39.468Z,80.04
2022-08-16T02:42:38.696Z,80.07
2022-08-16T02:43:38.670Z,79.33
2022-08-16T02:44:38.646Z,79.43
2022-08-16T02:45:38.636Z,79.73
2022-08-16T02:46:38.647Z,79.73
2022-08-16T02:48:01.629Z,79.83
2022-08-16T02:48:39.670Z,79.83
2022-08-16T02:49:58.962Z,80.04
2022-08-16T02:50:54.329Z,79.73
2022-08-16T02:51:39.904Z,79.73
2022-08-16T02:52:38.525Z,79.97
2022-08-16T02:53:38.516Z,79.77
2022-08-16T02:54:38.573Z,80.62
2022-08-16T02:55:41.147Z,80.41
2022-08-16T02:56:38.435Z,81.02
2022-08-16T02:57:42.429Z,80.58
2022-08-16T02:58:39.482Z,80.58
2022-08-16T02:59:39.770Z,79.53
2022-08-16T03:00:38.376Z,79.57
2022-08-16T03:01:39.468Z,79.43
2022-08-16T03:02:38.393Z,79.67
2022-08-16T03:04:29.278Z,80.18
2022-08-16T03:04:52.117Z,80.58
2022-08-16T03:05:40.303Z,80.47
2022-08-16T03:06:42.831Z,80.21
2022-08-16T03:07:38.282Z,80.31
2022-08-16T03:08:52.114Z,80.31
2022-08-16T03:09:39.239Z,80.21
2022-08-16T03:10:38.178Z,80.27
2022-08-16T03:11:38.202Z,80.82
2022-08-16T03:12:55.628Z,82.03
2022-08-16T03:13:51.175Z,80.68
2022-08-16T03:14:39.142Z,80.47
2022-08-16T03:15:38.118Z,80.68
2022-08-16T03:16:42.078Z,79.87
2022-08-16T03:17:53.937Z,79.83
2022-08-16T03:18:40.402Z,79.67
2022-08-16T03:19:47.933Z,79.83
2022-08-16T03:20:39.019Z,80.18
2022-08-16T03:21:38.840Z,79.97
2022-08-16T03:22:37.989Z,80.68
2022-08-16T03:23:37.952Z,80.68
2022-08-16T03:24:37.997Z,80.31
2022-08-16T03:25:44.209Z,80.21
2022-08-16T03:26:38.949Z,80.62
2022-08-16T03:27:37.889Z,80.82
2022-08-16T03:28:37.895Z,81.12
2022-08-16T03:29:37.915Z,81.02
2022-08-16T03:30:37.901Z,81.02
2022-08-16T03:31:40.425Z,81.32
2022-08-16T03:32:37.790Z,82.03
2022-08-16T03:33:37.796Z,81.82
2022-08-16T03:34:37.778Z,82.03
2022-08-16T03:35:40.057Z,81.62
2022-08-16T03:36:37.760Z,81.62
2022-08-16T03:38:02.923Z,81.52
2022-08-16T03:38:38.715Z,81.22
2022-08-16T03:39:42.759Z,81.22
2022-08-16T03:40:38.983Z,81.22
2022-08-16T03:41:49.796Z,81.82
2022-08-16T03:43:18.648Z,82.13
2022-08-16T03:43:51.579Z,83.24
2022-08-16T03:44:44.326Z,82.93
2022-08-16T03:45:38.603Z,83.64
2022-08-16T03:46:47.625Z,83.14
2022-08-16T03:47:38.559Z,82.23
2022-08-16T03:48:40.510Z,83.20
2022-08-16T03:49:37.603Z,83.20
2022-08-16T03:50:41.251Z,83.84
2022-08-16T03:51:38.485Z,84.71
2022-08-16T03:52:37.458Z,85.11
2022-08-16T03:53:38.613Z,85.22
2022-08-16T03:54:37.423Z,84.81
2022-08-16T03:55:45.355Z,84.91
2022-08-16T03:56:38.443Z,84.71
2022-08-16T03:57:38.387Z,84.81
2022-08-16T03:58:37.357Z,85.11
2022-08-16T03:59:37.339Z,85.62
2022-08-16T04:00:41.317Z,86.16
2022-08-16T04:01:37.381Z,86.27
2022-08-16T04:02:37.292Z,85.92
2022-08-16T04:03:37.292Z,85.82
2022-08-16T04:04:37.250Z,86.43
2022-08-16T04:05:37.667Z,86.43
2022-08-16T04:06:37.249Z,86.57
2022-08-16T04:07:37.184Z,86.27
2022-08-16T04:08:37.218Z,86.77
2022-08-16T04:09:38.183Z,84.71
2022-08-16T04:10:37.878Z,83.91
2022-08-16T04:11:37.664Z,81.79
2022-08-16T04:12:54.009Z,82.13
2022-08-16T04:14:01.402Z,82.19
2022-08-16T04:14:38.078Z,81.32
2022-08-16T04:15:38.066Z,81.73
2022-08-16T04:16:37.062Z,81.42
2022-08-16T04:17:37.018Z,81.42
2022-08-16T04:18:37.046Z,82.13
2022-08-16T04:19:36.989Z,82.23
2022-08-16T04:20:37.975Z,82.03
2022-08-16T04:21:46.069Z,81.56
2022-08-16T04:22:37.919Z,82.47
2022-08-16T04:23:36.922Z,82.07
2022-08-16T04:24:36.910Z,82.47
2022-08-16T04:25:36.954Z,82.57
2022-08-16T04:26:36.829Z,82.27
2022-08-16T04:27:36.922Z,81.87
2022-08-16T04:28:55.660Z,82.37
2022-08-16T04:29:46.108Z,82.37
2022-08-16T04:30:37.759Z,82.27
2022-08-16T04:31:36.796Z,81.93
2022-08-16T04:32:36.749Z,82.03
2022-08-16T04:33:36.709Z,81.93
2022-08-16T04:34:36.706Z,82.13
2022-08-16T04:35:36.792Z,82.23
2022-08-16T04:36:36.709Z,81.73
2022-08-16T04:37:42.335Z,82.43
2022-08-16T04:38:37.651Z,82.53
2022-08-16T04:39:47.471Z,82.47
2022-08-16T04:40:37.685Z,82.23
2022-08-16T04:41:37.393Z,82.64
2022-08-16T04:42:38.348Z,81.52
2022-08-16T04:43:36.578Z,80.92
2022-08-16T04:44:53.790Z,81.05
2022-08-16T04:45:37.525Z,81.16
2022-08-16T04:47:02.658Z,81.46
2022-08-16T04:47:37.474Z,81.67
2022-08-16T04:48:36.467Z,82.07
2022-08-16T04:49:44.066Z,80.82
2022-08-16T04:50:38.681Z,80.31
2022-08-16T04:51:37.455Z,80.51
2022-08-16T04:52:36.411Z,80.31
2022-08-16T04:53:36.435Z,80.31
2022-08-16T04:54:36.388Z,80.41
2022-08-16T04:55:38.189Z,80.31
2022-08-16T04:56:36.350Z,79.81
2022-08-16T04:57:37.386Z,80.51
2022-08-16T04:58:44.433Z,80.21
2022-08-16T04:59:37.293Z,80.82
2022-08-16T05:00:36.266Z,81.82
2022-08-16T05:01:57.758Z,81.93
2022-08-16T05:02:55.799Z,81.73
2022-08-16T05:03:42.067Z,82.64
2022-08-16T05:04:37.183Z,82.84
2022-08-16T05:05:40.242Z,82.73
2022-08-16T05:06:42.404Z,85.66
2022-08-16T05:07:37.168Z,86.27
2022-08-16T05:08:37.130Z,84.75
2022-08-16T05:09:36.303Z,84.55
2022-08-16T05:10:36.105Z,84.95
2022-08-16T05:11:36.109Z,84.31
2022-08-16T05:12:36.037Z,84.21
2022-08-16T05:13:41.461Z,83.80
2022-08-16T05:14:45.532Z,83.30
2022-08-16T05:15:36.966Z,83.36
2022-08-16T05:16:35.954Z,83.76
2022-08-16T05:17:36.926Z,84.17
2022-08-16T05:18:35.924Z,84.27
2022-08-16T05:19:36.875Z,84.37
2022-08-16T05:20:45.223Z,84.17
2022-08-16T05:21:38.646Z,83.97
2022-08-16T05:22:35.857Z,84.07
2022-08-16T05:23:36.865Z,84.47
2022-08-16T05:24:35.799Z,84.27
2022-08-16T05:25:41.082Z,84.67
2022-08-16T05:26:36.802Z,85.08
2022-08-16T05:27:42.798Z,85.52
2022-08-16T05:28:37.652Z,85.62
2022-08-16T05:29:57.469Z,85.82
2022-08-16T05:30:37.173Z,85.92
2022-08-16T05:31:35.776Z,85.92
2022-08-16T05:32:45.698Z,85.48
2022-08-16T05:33:36.717Z,84.88
2022-08-16T05:34:36.634Z,84.67
2022-08-16T05:35:35.830Z,84.43
2022-08-16T05:36:36.708Z,84.23
2022-08-16T05:37:39.941Z,84.23
2022-08-16T05:38:39.912Z,84.33
2022-08-16T05:39:37.650Z,83.99
2022-08-16T05:40:36.563Z,83.59
2022-08-16T05:41:44.834Z,83.48
2022-08-16T05:42:36.500Z,83.18
2022-08-16T05:43:43.515Z,83.59
2022-08-16T05:44:36.457Z,83.39
2022-08-16T05:45:36.602Z,82.48
2022-08-16T05:46:35.460Z,83.28
2022-08-16T05:47:43.174Z,82.78
2022-08-16T05:48:36.420Z,82.78
2022-08-16T05:49:39.703Z,82.78
2022-08-16T05:50:35.370Z,82.54
2022-08-16T05:51:38.979Z,82.34
2022-08-16T05:52:36.301Z,80.83
2022-08-16T05:53:36.454Z,80.63
2022-08-16T05:54:35.278Z,81.27
2022-08-16T05:55:40.683Z,82.21
2022-08-16T05:56:37.493Z,81.61
2022-08-16T05:57:35.582Z,82.62
2022-08-16T05:58:35.230Z,82.42
2022-08-16T05:59:35.315Z,82.11
2022-08-16T06:00:35.165Z,82.11
2022-08-16T06:01:38.096Z,81.98
2022-08-16T06:02:35.199Z,82.07
2022-08-16T06:03:35.223Z,81.53
2022-08-16T06:04:37.536Z,81.84
2022-08-16T06:05:36.141Z,81.84
2022-08-16T06:06:36.055Z,80.73
2022-08-16T06:07:35.186Z,80.73
2022-08-16T06:08:42.241Z,80.63
2022-08-16T06:09:42.628Z,80.69
2022-08-16T06:10:35.997Z,80.73
2022-08-16T06:11:35.130Z,80.99
2022-08-16T06:12:35.006Z,80.39
2022-08-16T06:13:35.018Z,80.99
2022-08-16T06:14:34.931Z,80.79
2022-08-16T06:15:35.181Z,80.85
2022-08-16T06:16:34.916Z,80.58
2022-08-16T06:17:42.352Z,80.69
2022-08-16T06:18:35.841Z,80.65
2022-08-16T06:19:35.756Z,80.75
2022-08-16T06:20:36.768Z,79.94
2022-08-16T06:21:36.801Z,80.45
2022-08-16T06:22:39.075Z,81.09
2022-08-16T06:23:34.885Z,80.75
2022-08-16T06:24:54.097Z,80.85
2022-08-16T06:25:38.894Z,80.05
2022-08-16T06:26:37.495Z,79.91
2022-08-16T06:27:40.091Z,79.27
2022-08-16T06:28:36.321Z,78.27
2022-08-16T06:29:34.834Z,77.72
2022-08-16T06:30:34.664Z,76.68
2022-08-16T06:31:43.462Z,76.38
2022-08-16T06:32:39.222Z,75.84
2022-08-16T06:33:41.587Z,75.98
2022-08-16T06:34:55.890Z,76.98
2022-08-16T06:35:40.306Z,76.89
2022-08-16T06:36:35.520Z,76.68
2022-08-16T06:37:37.362Z,76.89
2022-08-16T06:38:34.659Z,76.78
2022-08-16T06:39:34.655Z,75.78
2022-08-16T06:40:35.455Z,76.04
2022-08-16T06:41:39.849Z,75.74
2022-08-16T06:42:39.486Z,76.08
2022-08-16T06:43:35.490Z,76.38
2022-08-16T06:44:34.421Z,76.78
2022-08-16T06:45:34.500Z,77.83
2022-08-16T06:46:34.359Z,77.62
2022-08-16T06:47:52.558Z,77.32
2022-08-16T06:48:35.315Z,77.62
2022-08-16T06:49:35.493Z,77.59
2022-08-16T06:50:34.295Z,77.39
2022-08-16T06:51:46.521Z,77.09
2022-08-16T06:52:59.682Z,77.48
2022-08-16T06:53:35.773Z,77.05
2022-08-16T06:54:34.219Z,75.95
2022-08-16T06:55:34.795Z,75.51
2022-08-16T06:56:34.160Z,74.80
2022-08-16T06:57:34.229Z,74.40
2022-08-16T06:58:35.140Z,75.84
2022-08-16T06:59:48.477Z,75.74
2022-08-16T07:00:35.124Z,75.31
2022-08-16T07:01:42.979Z,75.21
2022-08-16T07:02:35.125Z,75.54
2022-08-16T07:03:54.950Z,76.04
2022-08-16T07:04:36.981Z,76.04
2022-08-16T07:05:42.073Z,76.18
2022-08-16T07:06:35.039Z,76.75
2022-08-16T07:07:36.237Z,76.65
2022-08-16T07:08:33.964Z,76.04
2022-08-16T07:09:34.023Z,75.74
2022-08-16T07:10:33.980Z,76.21
2022-08-16T07:11:45.618Z,76.31
2022-08-16T07:12:47.199Z,75.51
2022-08-16T07:14:00.680Z,74.80
2022-08-16T07:14:35.082Z,74.47
2022-08-16T07:15:33.951Z,74.47
2022-08-16T07:16:33.881Z,74.27
2022-08-16T07:17:33.911Z,74.40
2022-08-16T07:18:33.778Z,74.57
2022-08-16T07:20:29.221Z,74.27
2022-08-16T07:20:47.291Z,73.93
2022-08-16T07:21:45.604Z,73.97
2022-08-16T07:22:37.379Z,74.23
2022-08-16T07:23:38.828Z,74.13
2022-08-16T07:24:34.660Z,73.63
2022-08-16T07:25:34.844Z,73.39
2022-08-16T07:26:34.687Z,73.23
2022-08-16T07:27:37.017Z,72.60
2022-08-16T07:28:33.578Z,71.86
2022-08-16T07:29:33.674Z,72.26
2022-08-16T07:30:44.967Z,71.76
2022-08-16T07:31:38.142Z,71.96
2022-08-16T07:32:33.563Z,71.96
2022-08-16T07:33:52.378Z,72.26
2022-08-16T07:34:34.823Z,71.80
2022-08-16T07:35:34.577Z,72.50
2022-08-16T07:36:33.464Z,72.80
2022-08-16T07:37:33.597Z,71.93
2022-08-16T07:38:34.198Z,71.89
2022-08-16T07:39:34.048Z,71.66
2022-08-16T07:40:59.233Z,71.86
2022-08-16T07:41:34.489Z,71.76
2022-08-16T07:42:35.205Z,71.66
2022-08-16T07:43:33.596Z,71.96
2022-08-16T07:44:49.323Z,70.92
2022-08-16T07:45:34.396Z,70.92
2022-08-16T07:46:36.922Z,70.53
2022-08-16T07:47:34.420Z,70.59
2022-08-16T07:48:33.272Z,70.39
2022-08-16T07:49:33.336Z,70.29
2022-08-16T07:50:57.808Z,69.99
2022-08-16T07:51:34.304Z,69.79
2022-08-16T07:52:33.154Z,69.29
2022-08-16T07:53:33.269Z,69.39
2022-08-16T07:54:39.101Z,69.49
2022-08-16T07:55:45.942Z,69.99
2022-08-16T07:56:37.055Z,69.66
2022-08-16T07:57:37.937Z,69.56
2022-08-16T07:58:36.153Z,69.06
2022-08-16T07:59:42.742Z,68.56
2022-08-16T08:00:34.091Z,68.43
2022-08-16T08:01:33.098Z,68.52
2022-08-16T08:02:33.025Z,68.03
2022-08-16T08:03:36.118Z,68.03
2022-08-16T08:04:33.965Z,68.52
2022-08-16T08:05:35.926Z,68.03
2022-08-16T08:06:32.925Z,68.63
2022-08-16T08:07:33.021Z,68.49
2022-08-16T08:08:51.731Z,68.29
2022-08-16T08:09:34.037Z,68.29
2022-08-16T08:10:33.881Z,68.03
2022-08-16T08:11:32.966Z,68.03
2022-08-16T08:12:36.279Z,67.49
2022-08-16T08:13:42.742Z,67.10
2022-08-16T08:14:33.844Z,66.30
2022-08-16T08:15:34.408Z,66.77
2022-08-16T08:16:32.742Z,66.09
2022-08-16T08:17:43.277Z,67.69
2022-08-16T08:18:33.705Z,67.57
2022-08-16T08:19:32.836Z,66.36
2022-08-16T08:20:33.747Z,65.44
2022-08-16T08:22:00.009Z,64.64
2022-08-16T08:22:33.678Z,64.54
2022-08-16T08:23:32.719Z,65.01
2022-08-16T08:24:32.706Z,64.71
2022-08-16T08:25:54.403Z,65.11
2022-08-16T08:26:33.568Z,64.61
2022-08-16T08:27:32.991Z,64.41
2022-08-16T08:28:32.538Z,64.07
2022-08-16T08:29:37.733Z,63.78
2022-08-16T08:30:52.149Z,64.67
2022-08-16T08:31:33.575Z,63.48
2022-08-16T08:32:57.191Z,63.48
2022-08-16T08:33:34.450Z,63.68
2022-08-16T08:34:32.429Z,63.78
2022-08-16T08:35:33.390Z,63.38
2022-08-16T08:36:33.053Z,63.68
2022-08-16T08:37:54.654Z,62.85
2022-08-16T08:38:43.768Z,62.65
2022-08-16T08:39:33.489Z,62.65
2022-08-16T08:40:32.604Z,62.82
2022-08-16T08:41:32.398Z,62.35
2022-08-16T08:42:32.291Z,62.62
2022-08-16T08:43:41.691Z,61.83
2022-08-16T08:44:33.262Z,61.60
2022-08-16T08:45:53.192Z,61.20
2022-08-16T08:46:35.817Z,61.10
2022-08-16T08:47:32.290Z,60.83
2022-08-16T08:48:34.796Z,60.60
2022-08-16T08:49:46.719Z,60.50
2022-08-16T08:50:33.132Z,59.91
2022-08-16T08:51:36.999Z,60.33
2022-08-16T08:52:34.170Z,60.53
2022-08-16T08:53:32.174Z,59.81
2022-08-16T08:54:32.096Z,59.98
2022-08-16T08:55:32.147Z,60.08
2022-08-16T08:56:32.396Z,60.17
2022-08-16T08:57:32.108Z,59.58
2022-08-16T08:58:34.234Z,59.58
2022-08-16T08:59:32.072Z,59.58
2022-08-16T09:00:31.948Z,60.11
2022-08-16T09:01:36.756Z,60.08
2022-08-16T09:02:32.892Z,59.58
2022-08-16T09:03:32.398Z,59.58
2022-08-16T09:04:31.927Z,59.38
2022-08-16T09:05:35.825Z,59.25
2022-08-16T09:06:32.860Z,58.45
2022-08-16T09:07:31.917Z,58.16
2022-08-16T09:08:35.020Z,58.58
2022-08-16T09:09:33.953Z,58.98
2022-08-16T09:10:31.755Z,59.28
2022-08-16T09:11:38.853Z,59.68
2022-08-16T09:12:35.009Z,59.95
2022-08-16T09:13:32.797Z,59.88
2022-08-16T09:14:31.705Z,59.38
2022-08-16T09:15:32.988Z,59.15
2022-08-16T09:17:03.869Z,58.58
2022-08-16T09:17:51.698Z,58.69
2022-08-16T09:18:35.742Z,59.28
2022-08-16T09:19:33.066Z,58.45
2022-08-16T09:20:31.594Z,57.46
2022-08-16T09:21:31.652Z,57.53
2022-08-16T09:22:31.560Z,57.43
2022-08-16T09:23:36.580Z,57.41
2022-08-16T09:24:52.478Z,55.62
2022-08-16T09:25:34.457Z,55.69
2022-08-16T09:26:44.143Z,55.82
2022-08-16T09:27:57.290Z,57.11
2022-08-16T09:29:13.621Z,56.81
2022-08-16T09:29:44.485Z,58.00
2022-08-16T09:30:36.189Z,57.41
2022-08-16T09:31:32.495Z,57.31
2022-08-16T09:32:32.031Z,57.31
2022-08-16T09:33:36.985Z,57.41
2022-08-16T09:34:32.292Z,57.28
2022-08-16T09:35:31.384Z,56.88
2022-08-16T09:36:34.363Z,57.21
2022-08-16T09:37:36.463Z,57.31
2022-08-16T09:38:32.949Z,56.74
2022-08-16T09:39:42.092Z,56.64
2022-08-16T09:40:42.950Z,56.81
2022-08-16T09:41:32.798Z,55.72
2022-08-16T09:42:31.144Z,56.02
2022-08-16T09:43:59.449Z,56.09
2022-08-16T09:45:12.314Z,55.59
2022-08-16T09:45:32.170Z,55.79
2022-08-16T09:46:45.991Z,55.36
2022-08-16T09:47:56.746Z,55.69
2022-08-16T09:48:44.638Z,55.62
2022-08-16T09:49:37.116Z,55.79
2022-08-16T09:50:37.155Z,55.69
2022-08-16T09:51:36.780Z,54.77
2022-08-16T09:52:31.980Z,54.75
2022-08-16T09:53:31.083Z,54.25
2022-08-16T09:54:32.130Z,53.92
2022-08-16T09:55:31.469Z,54.82
2022-08-16T09:56:31.630Z,53.92
2022-08-16T09:57:34.391Z,53.50
2022-08-16T09:58:39.060Z,53.60
2022-08-16T09:59:38.695Z,52.78
2022-08-16T10:00:45.195Z,53.31
2022-08-16T10:01:32.016Z,53.90
2022-08-16T10:02:30.795Z,53.01
2022-08-16T10:03:31.030Z,52.78
2022-08-16T10:04:40.913Z,53.70
2022-08-16T10:05:31.949Z,53.80
2022-08-16T10:06:34.032Z,52.61
2022-08-16T10:07:44.704Z,53.01
2022-08-16T10:08:31.705Z,53.08
2022-08-16T10:09:44.824Z,51.89
2022-08-16T10:10:31.782Z,51.07
2022-08-16T10:11:30.793Z,51.77
2022-08-16T10:12:31.612Z,51.18
2022-08-16T10:13:30.710Z,50.88
2022-08-16T10:14:33.396Z,51.18
2022-08-16T10:15:31.818Z,50.38
2022-08-16T10:16:30.633Z,51.40
2022-08-16T10:17:30.631Z,51.12
2022-08-16T10:19:00.841Z,52.41
2022-08-16T10:19:32.045Z,52.91
2022-08-16T10:20:30.639Z,53.23
2022-08-16T10:21:32.093Z,52.44
2022-08-16T10:22:30.556Z,52.51
2022-08-16T10:23:30.512Z,51.72
2022-08-16T10:24:30.496Z,51.82
2022-08-16T10:27:17.954Z,51.50
2022-08-16T10:27:18.287Z,51.32
2022-08-16T10:27:47.203Z,51.00
2022-08-16T10:28:31.959Z,51.23
2022-08-16T10:29:59.446Z,51.20
2022-08-16T10:30:36.704Z,51.42
2022-08-16T10:31:44.195Z,51.30
2022-08-16T10:32:32.005Z,50.38
2022-08-16T10:33:33.466Z,49.40
2022-08-16T10:34:32.376Z,48.88
2022-08-16T10:35:33.059Z,49.37
2022-08-16T10:36:38.917Z,48.48
2022-08-16T10:37:32.631Z,48.97
2022-08-16T10:38:33.005Z,48.85
2022-08-16T10:39:40.616Z,48.36
2022-08-16T10:40:31.221Z,49.05
2022-08-16T10:41:30.253Z,48.36
2022-08-16T10:42:30.277Z,48.16
2022-08-16T10:43:31.227Z,48.55
2022-08-16T10:44:30.241Z,48.55
2022-08-16T10:45:36.973Z,48.85
2022-08-16T10:46:39.532Z,48.58
2022-08-16T10:47:38.094Z,48.97
2022-08-16T10:48:31.251Z,48.97
2022-08-16T10:49:30.023Z,48.88
2022-08-16T10:50:30.063Z,48.55
2022-08-16T10:51:34.638Z,47.64
2022-08-16T10:53:32.794Z,47.89
2022-08-16T10:54:30.594Z,48.46
2022-08-16T10:55:40.420Z,47.47
2022-08-16T10:56:56.224Z,47.56
2022-08-16T10:57:32.705Z,46.45
2022-08-16T10:58:34.517Z,46.45
2022-08-16T10:59:39.179Z,46.16
2022-08-16T11:00:30.902Z,46.16
2022-08-16T11:01:39.962Z,46.95
2022-08-16T11:02:58.818Z,46.16
2022-08-16T11:03:43.233Z,46.45
2022-08-16T11:05:59.109Z,44.28
2022-08-16T11:06:30.872Z,45.07
2022-08-16T11:07:51.447Z,45.67
2022-08-16T11:08:35.724Z,46.44
2022-08-16T11:09:30.682Z,45.94
2022-08-16T11:11:30.630Z,45.74
2022-08-16T11:12:29.641Z,45.74
2022-08-16T11:14:30.647Z,45.89
2022-08-16T11:15:29.612Z,45.76
2022-08-16T11:17:32.657Z,45.74
2022-08-16T11:19:02.990Z,45.64
2022-08-16T11:19:30.654Z,46.93
2022-08-16T11:20:41.149Z,46.83
2022-08-16T11:21:31.118Z,46.70
2022-08-16T11:22:41.943Z,46.01
2022-08-16T11:23:30.716Z,45.42
2022-08-16T11:24:40.069Z,44.83
2022-08-16T11:26:30.381Z,44.81
2022-08-16T11:27:35.434Z,44.91
2022-08-16T11:29:12.691Z,44.42
2022-08-16T11:29:30.437Z,42.93
2022-08-16T11:30:38.803Z,44.12
2022-08-16T11:31:32.802Z,44.64
2022-08-16T11:32:31.277Z,43.62
2022-08-16T11:33:58.855Z,44.20
2022-08-16T11:34:50.235Z,43.38
2022-08-16T11:36:22.553Z,43.88
2022-08-16T11:36:30.148Z,44.59
2022-08-16T11:38:04.669Z,44.39
2022-08-16T11:38:51.824Z,44.89
2022-08-16T11:39:30.178Z,43.60
2022-08-16T11:40:32.386Z,43.51
2022-08-16T11:41:30.107Z,43.41
2022-08-16T11:42:34.414Z,42.69
2022-08-16T11:43:30.138Z,43.38
2022-08-16T11:44:52.918Z,43.98
2022-08-16T11:45:31.519Z,44.51
2022-08-16T11:46:44.469Z,44.42
2022-08-16T11:47:30.097Z,43.82
2022-08-16T11:48:29.632Z,43.52
2022-08-16T11:49:29.619Z,43.51
2022-08-16T11:50:28.956Z,42.00
2022-08-16T11:51:28.974Z,42.00
2022-08-16T11:52:28.888Z,42.50
2022-08-16T11:53:28.906Z,42.00
2022-08-16T11:54:33.228Z,42.18
2022-08-16T11:55:29.826Z,42.18
2022-08-16T11:56:51.794Z,42.58
2022-08-16T11:57:30.605Z,42.58
2022-08-16T11:58:28.922Z,41.67
2022-08-16T11:59:29.147Z,41.85
2022-08-16T12:00:33.663Z,42.12
2022-08-16T12:01:54.752Z,41.43
2022-08-16T12:02:33.037Z,41.77
2022-08-16T12:03:34.784Z,42.50
2022-08-16T12:04:29.816Z,43.01
2022-08-16T12:05:28.672Z,42.61
2022-08-16T12:06:30.552Z,43.62
2022-08-16T12:07:28.692Z,43.33
2022-08-16T12:08:28.681Z,42.82
2022-08-16T12:09:29.863Z,42.50
2022-08-16T12:10:28.639Z,41.89
2022-08-16T12:11:28.676Z,41.77
2022-08-16T12:12:28.708Z,41.06
2022-08-16T12:13:29.127Z,40.25
2022-08-16T12:14:29.934Z,40.64
2022-08-16T12:15:29.529Z,41.33
2022-08-16T12:16:31.000Z,40.94
2022-08-16T12:17:31.522Z,41.08
2022-08-16T12:18:28.416Z,41.99
2022-08-16T12:19:35.314Z,41.94
2022-08-16T12:20:29.714Z,40.84
2022-08-16T12:21:57.876Z,40.53
2022-08-16T12:22:29.397Z,40.01
2022-08-16T12:23:28.396Z,39.21
2022-08-16T12:24:28.401Z,39.50
2022-08-16T12:25:28.386Z,38.42
2022-08-16T12:26:28.263Z,39.32
2022-08-16T12:27:29.126Z,38.85
2022-08-16T12:28:52.060Z,39.92
2022-08-16T12:29:29.594Z,40.13
2022-08-16T12:30:33.494Z,39.52
2022-08-16T12:31:29.247Z,39.21
2022-08-16T12:32:39.416Z,39.01
2022-08-16T12:33:29.202Z,39.50
2022-08-16T12:34:29.163Z,40.21
2022-08-16T12:35:28.385Z,39.34
2022-08-16T12:36:29.990Z,39.64
2022-08-16T12:37:28.097Z,40.13
2022-08-16T12:38:40.976Z,39.03
2022-08-16T12:39:29.328Z,39.31
2022-08-16T12:40:29.108Z,38.19
2022-08-16T12:41:28.074Z,37.50
2022-08-16T12:42:44.855Z,37.21
2022-08-16T12:43:31.205Z,38.11
2022-08-16T12:44:31.359Z,36.91
2022-08-16T12:45:27.984Z,37.62
2022-08-16T12:46:27.971Z,37.48
2022-08-16T12:47:28.653Z,37.46
2022-08-16T12:48:33.654Z,36.86
2022-08-16T12:49:28.931Z,36.76
2022-08-16T12:50:33.303Z,37.54
2022-08-16T12:51:31.273Z,37.05
2022-08-16T12:52:32.755Z,37.52
2022-08-16T12:53:32.100Z,36.63
2022-08-16T12:54:27.936Z,36.84
2022-08-16T12:55:33.562Z,37.02
2022-08-16T12:56:28.747Z,36.61
2022-08-16T12:57:36.429Z,36.04
2022-08-16T12:58:50.467Z,36.84